CYPL

Pickle Lake Airport

Pickle Lake, Ontario, Canada
METAR CYPL 110200Z 01004KT 340V040 15SM -SN OVC008 M10/M13 A2990 RMK SC8 LAST STFD OBS/NEXT 111100 UTC SLP158
Observed Flight Rules
Dec-11 @ 02:00 UTC (25 minutes ago) Instrument Flight Rules
Wind Visibility Clouds Conditions
10° at 4 knots 15 miles
  • Overcast at 800' AGL
  • Light Snow
Temperatures Readings
Current -10°C / 14°F
Dewpoint -13°C / 9°F
Humidity 79%
Altimeter 29.9" Hg
Pressure 1015.8 hPa
Elevation 373
METAR CYPL 110200Z 01004KT 340V040 15SM -SN OVC008 M10/M13 A2990 RMK SC8 LAST STFD OBS/NEXT 111100 UTC SLP158
Observed Flight Rules
Dec-11 @ 02:00 UTC
(25 minutes ago)
IFR
Wind Visibility
10° at 4 knots 15 miles
Clouds
  • Overcast at 800' AGL
Conditions
  • Light Snow
Temperature Dewpoint
-10°C / 14°F -13°C / 9°F
Humidity Altimeter Pressure
79% 29.9" Hg 1015.8 hPa